createdAt,value
2019-04-07T00:02:28.041Z,98101.48
2019-04-07T00:04:56.658Z,98095.32
2019-04-07T00:07:25.402Z,98096.59
2019-04-07T00:09:54.203Z,98098.58
2019-04-07T00:12:22.807Z,98094.62
2019-04-07T00:14:51.432Z,98097.95
2019-04-07T00:17:19.595Z,98101.70
2019-04-07T00:19:48.737Z,98098.58
2019-04-07T00:22:17.127Z,98097.19
2019-04-07T00:24:45.284Z,98094.87
2019-04-07T00:27:14.380Z,98094.39
2019-04-07T00:29:42.894Z,98096.83
2019-04-07T00:32:11.351Z,98100.58
2019-04-07T00:34:39.832Z,98099.60
2019-04-07T00:37:08.273Z,98102.94
2019-04-07T00:39:36.512Z,98103.27
2019-04-07T00:42:04.740Z,98107.91
2019-04-07T00:44:32.970Z,98111.27
2019-04-07T00:47:01.465Z,98105.58
2019-04-07T00:49:29.893Z,98108.90
2019-04-07T00:51:59.635Z,98105.82
2019-04-07T00:54:28.161Z,98106.59
2019-04-07T00:56:56.586Z,98105.19
2019-04-07T00:59:25.426Z,98105.52
2019-04-07T01:01:53.762Z,98108.86
2019-04-07T01:04:21.965Z,98104.06
2019-04-07T01:06:50.195Z,98105.45
2019-04-07T01:09:18.762Z,98103.39
2019-04-07T01:11:47.449Z,98100.94
2019-04-07T01:14:16.044Z,98103.13
2019-04-07T01:16:44.290Z,98108.66
2019-04-07T01:19:13.401Z,98111.59
2019-04-07T01:21:41.608Z,98111.97
2019-04-07T01:24:09.899Z,98113.67
2019-04-07T01:26:38.165Z,98117.12
2019-04-07T01:29:06.396Z,98120.20
2019-04-07T01:31:35.224Z,98111.64
2019-04-07T01:34:03.708Z,98114.99
2019-04-07T01:36:32.596Z,98115.98
2019-04-07T01:39:01.450Z,98121.20
2019-04-07T01:41:43.060Z,98113.83
2019-04-07T01:44:12.920Z,98124.83
2019-04-07T01:46:45.877Z,98114.19
2019-04-07T01:49:18.446Z,98110.69
2019-04-07T01:51:50.959Z,98113.26
2019-04-07T01:54:37.263Z,98102.97
2019-04-07T01:57:13.512Z,98100.04
2019-04-07T01:59:59.576Z,98110.27
2019-04-07T02:02:41.363Z,98114.00
2019-04-07T02:05:27.311Z,98109.11
2019-04-07T02:08:13.091Z,98112.03
2019-04-07T02:10:59.884Z,98115.70
2019-04-07T02:13:46.067Z,98112.64
2019-04-07T02:16:21.873Z,98109.81
2019-04-07T02:18:51.898Z,98105.80
2019-04-07T02:21:22.244Z,98111.52
2019-04-07T02:23:57.860Z,98104.83
2019-04-07T02:26:39.825Z,98109.23
2019-04-07T02:29:21.933Z,98112.38
2019-04-07T02:31:58.541Z,98107.34
2019-04-07T02:34:37.910Z,98106.95
2019-04-07T02:37:08.060Z,98109.56
2019-04-07T02:39:43.843Z,98106.14
2019-04-07T02:42:16.839Z,98108.22
2019-04-07T02:45:02.774Z,98111.09
2019-04-07T02:47:41.840Z,98115.57
2019-04-07T02:50:12.458Z,98114.90
2019-04-07T02:52:52.726Z,98115.96
2019-04-07T02:55:26.594Z,98115.77
2019-04-07T02:57:59.179Z,98110.48
2019-04-07T03:00:29.716Z,98117.75
2019-04-07T03:03:14.501Z,98113.38
2019-04-07T03:05:44.359Z,98114.59
2019-04-07T03:08:26.980Z,98117.47
2019-04-07T03:10:57.166Z,98123.83
2019-04-07T03:13:27.015Z,98121.98
2019-04-07T03:15:57.883Z,98135.14
2019-04-07T03:18:28.033Z,98140.21
2019-04-07T03:21:07.682Z,98134.55
2019-04-07T03:23:38.357Z,98134.89
2019-04-07T03:26:23.731Z,98139.91
2019-04-07T03:29:09.782Z,98140.25
2019-04-07T03:31:49.233Z,98145.70
2019-04-07T03:34:33.382Z,98141.31
2019-04-07T03:37:31.258Z,98142.44
2019-04-07T03:39:49.322Z,98141.04
2019-04-07T03:42:24.998Z,98135.78
2019-04-07T03:45:11.280Z,98137.36
2019-04-07T03:47:41.920Z,98132.56
2019-04-07T03:50:27.846Z,98133.77
2019-04-07T03:53:06.570Z,98132.36
2019-04-07T03:55:39.407Z,98136.50
2019-04-07T03:58:09.939Z,98136.38
2019-04-07T04:01:14.357Z,98132.82
2019-04-07T04:03:49.726Z,98138.28
2019-04-07T04:06:35.935Z,98143.30
2019-04-07T04:09:24.239Z,98143.58
2019-04-07T04:11:59.941Z,98144.36
2019-04-07T04:14:31.303Z,98145.06
2019-04-07T04:16:59.650Z,98145.43
2019-04-07T04:19:28.785Z,98141.90
2019-04-07T04:21:57.074Z,98150.80
2019-04-07T04:24:26.498Z,98149.02
2019-04-07T04:26:54.819Z,98151.45
2019-04-07T04:29:23.349Z,98150.11
2019-04-07T04:31:52.860Z,98152.12
2019-04-07T04:34:21.165Z,98150.34
2019-04-07T04:36:50.233Z,98152.86
2019-04-07T04:39:20.065Z,98152.32
2019-04-07T04:41:49.013Z,98160.45
2019-04-07T04:44:18.633Z,98158.22
2019-04-07T04:46:47.404Z,98156.48
2019-04-07T04:49:15.710Z,98156.34
2019-04-07T04:51:44.398Z,98160.42
2019-04-07T04:54:12.980Z,98156.80
2019-04-07T04:56:41.434Z,98159.55
2019-04-07T04:59:09.720Z,98158.19
2019-04-07T05:01:37.950Z,98154.92
2019-04-07T05:04:06.333Z,98155.55
2019-04-07T05:06:34.596Z,98158.73
2019-04-07T05:09:04.760Z,98158.94
2019-04-07T05:11:33.696Z,98159.90
2019-04-07T05:14:02.872Z,98160.89
2019-04-07T05:16:31.112Z,98164.48
2019-04-07T05:18:59.649Z,98160.27
2019-04-07T05:21:28.238Z,98166.42
2019-04-07T05:23:57.205Z,98170.39
2019-04-07T05:26:25.591Z,98163.19
2019-04-07T05:28:53.880Z,98171.42
2019-04-07T05:31:22.478Z,98170.67
2019-04-07T05:33:52.139Z,98170.74
2019-04-07T05:36:20.354Z,98171.28
2019-04-07T05:38:48.794Z,98176.11
2019-04-07T05:41:17.154Z,98169.34
2019-04-07T05:43:45.884Z,98175.44
2019-04-07T05:46:14.040Z,98173.46
2019-04-07T05:48:42.513Z,98186.84
2019-04-07T05:51:10.746Z,98186.50
2019-04-07T05:53:38.974Z,98189.18
2019-04-07T05:56:07.637Z,98193.17
2019-04-07T05:58:38.605Z,98199.30
2019-04-07T06:01:06.346Z,98196.97
2019-04-07T06:03:38.715Z,98197.59
2019-04-07T06:06:05.036Z,98209.76
2019-04-07T06:08:37.966Z,98206.52
2019-04-07T06:11:04.152Z,98208.78
2019-04-07T06:13:32.937Z,98199.09
2019-04-07T06:16:01.152Z,98215.09
2019-04-07T06:18:32.689Z,98213.09
2019-04-07T06:20:59.659Z,98222.23
2019-04-07T06:23:29.849Z,98221.06
2019-04-07T06:26:00.018Z,98213.48
2019-04-07T06:28:29.243Z,98214.54
2019-04-07T06:31:00.177Z,98222.38
2019-04-07T06:33:27.571Z,98225.13
2019-04-07T06:35:56.181Z,98220.48
2019-04-07T06:38:31.254Z,98221.07
2019-04-07T06:40:57.775Z,98222.02
2019-04-07T06:43:24.790Z,98218.73
2019-04-07T06:45:55.006Z,98226.60
2019-04-07T06:48:23.333Z,98224.64
2019-04-07T06:50:58.413Z,98228.60
2019-04-07T06:53:25.822Z,98224.00
2019-04-07T06:56:03.282Z,98224.91
2019-04-07T06:58:40.850Z,98227.19
2019-04-07T07:01:11.062Z,98229.83
2019-04-07T07:03:46.455Z,98233.75
2019-04-07T07:06:19.235Z,98230.82
2019-04-07T07:08:54.084Z,98232.17
2019-04-07T07:11:42.804Z,98233.95
2019-04-07T07:14:31.205Z,98232.73
2019-04-07T07:16:54.385Z,98229.79
2019-04-07T07:19:36.406Z,98241.47
2019-04-07T07:22:13.227Z,98238.48
2019-04-07T07:24:39.583Z,98249.73
2019-04-07T07:27:10.341Z,98239.87
2019-04-07T07:29:37.779Z,98240.72
2019-04-07T07:32:06.416Z,98245.95
2019-04-07T07:34:35.763Z,98240.37
2019-04-07T07:37:05.162Z,98238.72
2019-04-07T07:39:34.079Z,98235.32
2019-04-07T07:42:02.894Z,98238.39
2019-04-07T07:44:34.348Z,98245.75
2019-04-07T07:47:01.601Z,98240.67
2019-04-07T07:49:32.527Z,98245.03
2019-04-07T07:52:00.314Z,98244.61
2019-04-07T07:54:29.892Z,98242.95
2019-04-07T07:56:59.060Z,98241.69
2019-04-07T07:59:30.613Z,98246.48
2019-04-07T08:01:58.718Z,98252.16
2019-04-07T08:04:27.666Z,98255.56
2019-04-07T08:06:55.858Z,98246.62
2019-04-07T08:09:26.006Z,98249.23
2019-04-07T08:11:54.384Z,98256.53
2019-04-07T08:14:23.121Z,98252.32
2019-04-07T08:16:52.377Z,98257.95
2019-04-07T08:19:24.253Z,98256.67
2019-04-07T08:21:51.982Z,98253.63
2019-04-07T08:24:20.756Z,98259.31
2019-04-07T08:26:50.237Z,98260.61
2019-04-07T08:29:18.609Z,98257.65
2019-04-07T08:31:47.050Z,98264.61
2019-04-07T08:34:15.672Z,98261.22
2019-04-07T08:36:45.384Z,98264.25
2019-04-07T08:39:22.977Z,98266.41
2019-04-07T08:41:45.192Z,98259.09
2019-04-07T08:44:14.019Z,98268.63
2019-04-07T08:46:43.284Z,98268.70
2019-04-07T08:49:12.791Z,98264.40
2019-04-07T08:51:41.725Z,98267.05
2019-04-07T08:54:10.091Z,98260.62
2019-04-07T08:56:38.756Z,98264.98
2019-04-07T08:59:09.445Z,98262.83
2019-04-07T09:01:37.235Z,98270.65
2019-04-07T09:04:05.626Z,98265.45
2019-04-07T09:06:33.841Z,98274.99
2019-04-07T09:09:04.006Z,98272.88
2019-04-07T09:11:32.440Z,98276.31
2019-04-07T09:14:00.667Z,98266.42
2019-04-07T09:16:52.156Z,98271.23
2019-04-07T09:19:28.805Z,98269.55
2019-04-07T09:21:58.738Z,98251.46
2019-04-07T09:24:34.113Z,98261.04
2019-04-07T09:27:04.210Z,98256.77
2019-04-07T09:29:40.964Z,98255.52
2019-04-07T09:32:29.083Z,98257.67
2019-04-07T09:35:14.436Z,98261.62
2019-04-07T09:37:48.133Z,98263.36
2019-04-07T09:40:34.005Z,98263.81
2019-04-07T09:43:06.342Z,98259.11
2019-04-07T09:45:39.591Z,98259.95
2019-04-07T09:48:26.745Z,98265.18
2019-04-07T09:51:02.545Z,98261.28
2019-04-07T09:53:34.955Z,98262.58
2019-04-07T09:56:19.984Z,98263.02
2019-04-07T09:58:53.541Z,98253.98
2019-04-07T10:01:27.810Z,98260.04
2019-04-07T10:03:57.381Z,98269.98
2019-04-07T10:06:33.237Z,98263.48
2019-04-07T10:09:06.679Z,98253.10
2019-04-07T10:11:37.326Z,98259.59
2019-04-07T10:14:13.846Z,98263.90
2019-04-07T10:16:53.471Z,98268.67
2019-04-07T10:19:24.273Z,98263.02
2019-04-07T10:21:55.073Z,98261.30
2019-04-07T10:24:25.864Z,98266.02
2019-04-07T10:26:58.876Z,98266.45
2019-04-07T10:29:29.013Z,98255.16
2019-04-07T10:31:58.871Z,98252.52
2019-04-07T10:34:29.040Z,98257.70
2019-04-07T10:37:08.102Z,98262.02
2019-04-07T10:39:41.448Z,98263.32
2019-04-07T10:42:14.010Z,98260.30
2019-04-07T10:45:00.393Z,98252.52
2019-04-07T10:47:32.627Z,98247.31
2019-04-07T10:50:17.918Z,98257.73
2019-04-07T10:52:53.575Z,98263.36
2019-04-07T10:55:24.166Z,98259.00
2019-04-07T10:58:10.623Z,98248.16
2019-04-07T11:00:50.820Z,98256.37
2019-04-07T11:03:32.942Z,98268.95
2019-04-07T11:06:03.885Z,98253.35
2019-04-07T11:08:33.890Z,98252.48
2019-04-07T11:11:22.265Z,98262.83
2019-04-07T11:13:56.029Z,98260.64
2019-04-07T11:16:38.727Z,98259.26
2019-04-07T11:19:08.941Z,98254.41
2019-04-07T11:21:56.756Z,98250.85
2019-04-07T11:24:31.136Z,98258.14
2019-04-07T11:27:16.705Z,98253.33
2019-04-07T11:29:46.726Z,98256.39
2019-04-07T11:32:32.471Z,98258.52
2019-04-07T11:35:18.476Z,98262.37
2019-04-07T11:37:54.448Z,98259.32
2019-04-07T11:40:42.509Z,98254.98
2019-04-07T11:43:14.116Z,98248.47
2019-04-07T11:45:56.456Z,98247.62
2019-04-07T11:48:21.908Z,98243.27
2019-04-07T11:50:52.203Z,98251.08
2019-04-07T11:53:27.773Z,98256.20
2019-04-07T11:55:57.704Z,98243.98
2019-04-07T11:58:33.208Z,98243.42
2019-04-07T12:01:02.500Z,98245.48
2019-04-07T12:03:38.736Z,98245.91
2019-04-07T12:06:08.691Z,98248.02
2019-04-07T12:08:41.121Z,98246.61
2019-04-07T12:11:27.680Z,98244.38
2019-04-07T12:14:00.858Z,98247.86
2019-04-07T12:16:30.907Z,98247.31
2019-04-07T12:19:17.398Z,98237.27
2019-04-07T12:21:48.128Z,98241.94
2019-04-07T12:24:32.592Z,98237.58
2019-04-07T12:27:05.104Z,98238.45
2019-04-07T12:29:35.349Z,98239.63
2019-04-07T12:32:11.592Z,98243.95
2019-04-07T12:34:46.622Z,98237.39
2019-04-07T12:37:19.112Z,98240.42
2019-04-07T12:39:50.751Z,98232.08
2019-04-07T12:42:20.875Z,98231.09
2019-04-07T12:44:50.973Z,98231.78
2019-04-07T12:47:32.675Z,98223.52
2019-04-07T12:50:02.777Z,98221.80
2019-04-07T12:52:33.472Z,98223.09
2019-04-07T12:55:17.809Z,98219.34
2019-04-07T12:58:03.126Z,98212.06
2019-04-07T13:00:57.864Z,98214.70
2019-04-07T13:03:38.342Z,98210.31
2019-04-07T13:06:10.975Z,98210.56
2019-04-07T13:08:51.980Z,98199.91
2019-04-07T13:11:31.276Z,98200.77
2019-04-07T13:14:10.181Z,98198.97
2019-04-07T13:16:42.756Z,98195.37
2019-04-07T13:19:14.350Z,98201.33
2019-04-07T13:21:46.030Z,98188.95
2019-04-07T13:24:30.328Z,98186.73
2019-04-07T13:26:50.846Z,98195.78
2019-04-07T13:29:23.742Z,98199.53
2019-04-07T13:31:58.090Z,98195.03
2019-04-07T13:34:34.232Z,98195.17
2019-04-07T13:37:04.573Z,98192.32
2019-04-07T13:39:40.767Z,98192.00
2019-04-07T13:42:26.645Z,98194.50
2019-04-07T13:45:04.297Z,98195.19
2019-04-07T13:47:46.994Z,98196.91
2019-04-07T13:50:34.473Z,98196.14
2019-04-07T13:53:25.767Z,98198.26
2019-04-07T13:55:59.525Z,98189.58
2019-04-07T13:58:33.099Z,98188.94
2019-04-07T14:01:13.762Z,98192.80
2019-04-07T14:03:44.174Z,98189.22
2019-04-07T14:06:30.389Z,98185.89
2019-04-07T14:09:00.256Z,98190.84
2019-04-07T14:11:36.072Z,98186.08
2019-04-07T14:14:09.760Z,98195.67
2019-04-07T14:16:40.123Z,98186.31
2019-04-07T14:19:10.194Z,98179.61
2019-04-07T14:21:56.511Z,98185.00
2019-04-07T14:24:39.394Z,98185.20
2019-04-07T14:27:22.013Z,98187.78
2019-04-07T14:29:52.436Z,98179.61
2019-04-07T14:32:28.403Z,98183.06
2019-04-07T14:35:04.324Z,98185.84
2019-04-07T14:37:35.285Z,98175.73
2019-04-07T14:40:20.388Z,98179.33
2019-04-07T14:42:51.890Z,98182.86
2019-04-07T14:45:24.728Z,98176.97
2019-04-07T14:48:04.173Z,98176.73
2019-04-07T14:50:49.512Z,98170.52
2019-04-07T14:53:20.036Z,98171.53
2019-04-07T14:55:52.597Z,98174.39
2019-04-07T14:58:22.471Z,98173.02
2019-04-07T15:00:52.584Z,98178.16
2019-04-07T15:03:21.417Z,98180.64
2019-04-07T15:05:56.414Z,98179.84
2019-04-07T15:08:26.400Z,98188.44
2019-04-07T15:10:58.686Z,98193.61
2019-04-07T15:13:29.375Z,98193.88
2019-04-07T15:15:58.352Z,98196.70
2019-04-07T15:18:27.532Z,98191.31
2019-04-07T15:20:56.126Z,98189.52
2019-04-07T15:23:25.064Z,98188.84
2019-04-07T15:25:53.473Z,98193.43
2019-04-07T15:28:22.551Z,98197.02
2019-04-07T15:30:51.658Z,98194.11
2019-04-07T15:33:19.947Z,98198.16
2019-04-07T15:35:49.443Z,98200.70
2019-04-07T15:38:22.730Z,98196.75
2019-04-07T15:40:48.317Z,98195.91
2019-04-07T15:43:17.050Z,98194.34
2019-04-07T15:45:45.616Z,98189.41
2019-04-07T15:48:14.056Z,98195.59
2019-04-07T15:50:42.510Z,98203.47
2019-04-07T15:53:13.489Z,98199.75
2019-04-07T15:55:47.619Z,98206.08
2019-04-07T15:58:10.789Z,98212.25
2019-04-07T16:00:38.974Z,98207.28
2019-04-07T16:03:07.470Z,98208.71
2019-04-07T16:05:42.027Z,98210.29
2019-04-07T16:08:06.517Z,98213.84
2019-04-07T16:10:34.832Z,98207.02
2019-04-07T16:13:03.062Z,98220.21
2019-04-07T16:15:31.894Z,98216.96
2019-04-07T16:18:03.377Z,98214.03
2019-04-07T16:20:35.647Z,98218.11
2019-04-07T16:23:00.034Z,98214.00
2019-04-07T16:25:29.151Z,98214.16
2019-04-07T16:27:58.739Z,98224.17
2019-04-07T16:30:27.100Z,98221.14
2019-04-07T16:32:59.690Z,98220.32
2019-04-07T16:35:26.337Z,98227.31
2019-04-07T16:37:55.381Z,98232.64
2019-04-07T16:40:23.832Z,98230.53
2019-04-07T16:43:04.578Z,98236.34
2019-04-07T16:45:22.371Z,98235.94
2019-04-07T16:47:51.166Z,98239.02
2019-04-07T16:50:20.623Z,98238.60
2019-04-07T16:52:49.690Z,98242.16
2019-04-07T16:55:37.403Z,98241.32
2019-04-07T16:58:06.357Z,98244.84
2019-04-07T17:00:34.735Z,98248.41
2019-04-07T17:03:04.458Z,98253.27
2019-04-07T17:05:33.366Z,98251.11
2019-04-07T17:08:01.761Z,98252.89
2019-04-07T17:10:33.866Z,98255.53
2019-04-07T17:13:02.810Z,98255.14
2019-04-07T17:15:30.553Z,98252.61
2019-04-07T17:17:58.893Z,98252.20
2019-04-07T17:20:28.460Z,98254.85
2019-04-07T17:22:57.055Z,98257.48
2019-04-07T17:25:25.609Z,98262.06
2019-04-07T17:27:53.844Z,98263.61
2019-04-07T17:30:24.263Z,98260.59
2019-04-07T17:32:53.349Z,98258.94
2019-04-07T17:35:21.537Z,98263.78
2019-04-07T17:37:50.245Z,98265.55
2019-04-07T17:40:20.331Z,98263.85
2019-04-07T17:42:52.684Z,98275.16
2019-04-07T17:45:35.454Z,98272.56
2019-04-07T17:48:21.757Z,98273.05
2019-04-07T17:50:51.627Z,98272.21
2019-04-07T17:53:21.504Z,98279.66
2019-04-07T17:55:51.363Z,98281.45
2019-04-07T17:58:39.955Z,98287.55
2019-04-07T18:01:23.039Z,98291.92
2019-04-07T18:03:56.545Z,98288.05
2019-04-07T18:06:32.283Z,98295.05
2019-04-07T18:09:20.922Z,98297.27
2019-04-07T18:12:03.060Z,98297.73
2019-04-07T18:14:31.133Z,98302.57
2019-04-07T18:17:04.474Z,98306.08
2019-04-07T18:19:43.475Z,98304.41
2019-04-07T18:22:13.778Z,98312.69
2019-04-07T18:25:02.814Z,98309.69
2019-04-07T18:27:34.698Z,98313.17
2019-04-07T18:30:05.526Z,98319.69
2019-04-07T18:32:41.767Z,98323.63
2019-04-07T18:35:11.080Z,98331.05
2019-04-07T18:37:57.865Z,98327.59
2019-04-07T18:40:30.799Z,98327.59
2019-04-07T18:43:01.127Z,98325.01
2019-04-07T18:45:36.527Z,98328.53
2019-04-07T18:48:13.521Z,98335.48
2019-04-07T18:50:49.982Z,98341.13
2019-04-07T18:53:20.702Z,98347.23
2019-04-07T18:55:53.720Z,98344.64
2019-04-07T18:58:26.727Z,98346.82
2019-04-07T19:01:07.402Z,98356.83
2019-04-07T19:03:48.479Z,98354.66
2019-04-07T19:06:20.192Z,98362.03
2019-04-07T19:08:55.105Z,98364.63
2019-04-07T19:11:35.235Z,98368.13
2019-04-07T19:14:24.528Z,98366.41
2019-04-07T19:16:53.073Z,98368.14
2019-04-07T19:19:23.534Z,98364.23
2019-04-07T19:21:53.749Z,98365.53
2019-04-07T19:24:23.914Z,98376.37
2019-04-07T19:27:12.001Z,98371.17
2019-04-07T19:29:34.254Z,98375.53
2019-04-07T19:32:13.534Z,98377.66
2019-04-07T19:34:55.619Z,98380.27
2019-04-07T19:37:28.386Z,98384.16
2019-04-07T19:40:01.539Z,98381.98
2019-04-07T19:42:30.084Z,98381.12
2019-04-07T19:45:00.219Z,98382.88
2019-04-07T19:47:39.586Z,98383.31
2019-04-07T19:50:11.233Z,98388.08
2019-04-07T19:52:58.342Z,98382.44
2019-04-07T19:55:28.423Z,98384.20
2019-04-07T19:58:16.164Z,98384.20
2019-04-07T20:00:52.008Z,98385.92
2019-04-07T20:03:20.595Z,98384.18
2019-04-07T20:05:53.517Z,98388.09
2019-04-07T20:08:23.376Z,98384.63
2019-04-07T20:10:55.895Z,98385.05
2019-04-07T20:13:40.444Z,98388.07
2019-04-07T20:16:26.162Z,98391.55
2019-04-07T20:19:13.016Z,98391.55
2019-04-07T20:21:49.433Z,98394.13
2019-04-07T20:24:29.559Z,98391.97
2019-04-07T20:26:59.647Z,98391.96
2019-04-07T20:29:31.758Z,98396.70
2019-04-07T20:32:01.358Z,98394.55
2019-04-07T20:34:48.326Z,98389.78
2019-04-07T20:37:34.357Z,98391.53
2019-04-07T20:40:05.324Z,98392.41
2019-04-07T20:42:54.393Z,98386.76
2019-04-07T20:45:25.072Z,98386.31
2019-04-07T20:47:59.206Z,98386.31
2019-04-07T20:50:45.718Z,98383.30
2019-04-07T20:53:29.039Z,98389.77
2019-04-07T20:56:02.560Z,98391.50
2019-04-07T20:58:55.267Z,98391.06
2019-04-07T21:01:22.571Z,98391.05
2019-04-07T21:03:58.250Z,98391.48
2019-04-07T21:06:31.678Z,98392.33
2019-04-07T21:09:10.122Z,98394.50
2019-04-07T21:11:56.779Z,98393.19
2019-04-07T21:14:26.677Z,98399.67
2019-04-07T21:17:07.459Z,98402.70
2019-04-07T21:19:38.557Z,98397.52
2019-04-07T21:22:15.637Z,98404.86
2019-04-07T21:24:55.443Z,98405.30
2019-04-07T21:27:37.521Z,98407.90
2019-04-07T21:30:26.975Z,98410.49
2019-04-07T21:33:13.201Z,98405.31
2019-04-07T21:36:01.174Z,98414.84
2019-04-07T21:38:37.769Z,98413.97
2019-04-07T21:41:16.885Z,98411.37
2019-04-07T21:43:55.427Z,98406.60
2019-04-07T21:46:34.602Z,98412.64
2019-04-07T21:49:05.518Z,98412.66
2019-04-07T21:51:38.602Z,98411.30
2019-04-07T21:54:08.473Z,98406.10
2019-04-07T21:56:50.140Z,98408.70
2019-04-07T21:59:33.601Z,98414.74
2019-04-07T22:02:19.457Z,98413.02
2019-04-07T22:05:07.445Z,98413.45
2019-04-07T22:07:37.608Z,98409.12
2019-04-07T22:10:09.411Z,98415.60
2019-04-07T22:12:38.035Z,98415.17
2019-04-07T22:15:11.636Z,98415.60
2019-04-07T22:17:39.263Z,98419.05
2019-04-07T22:20:08.513Z,98416.89
2019-04-07T22:22:36.722Z,98418.20
2019-04-07T22:25:09.591Z,98414.30
2019-04-07T22:27:38.061Z,98425.53
2019-04-07T22:30:09.133Z,98423.79
2019-04-07T22:32:37.385Z,98427.66
2019-04-07T22:35:06.873Z,98430.66
2019-04-07T22:37:35.660Z,98433.67
2019-04-07T22:40:07.077Z,98428.94
2019-04-07T22:42:35.314Z,98432.38
2019-04-07T22:45:04.062Z,98428.92
2019-04-07T22:47:32.294Z,98431.94
2019-04-07T22:50:02.732Z,98430.63
2019-04-07T22:52:30.475Z,98436.66
2019-04-07T22:55:02.584Z,98431.45
2019-04-07T22:57:29.223Z,98432.75
2019-04-07T22:59:58.706Z,98435.75
2019-04-07T23:02:27.638Z,98430.53
2019-04-07T23:04:55.893Z,98435.26
2019-04-07T23:07:24.360Z,98434.40
2019-04-07T23:09:52.589Z,98434.80
2019-04-07T23:12:20.994Z,98440.84
2019-04-07T23:14:49.723Z,98443.41
2019-04-07T23:17:17.961Z,98442.10
2019-04-07T23:19:46.287Z,98446.41
2019-04-07T23:22:14.518Z,98450.30
2019-04-07T23:24:43.187Z,98445.55
2019-04-07T23:27:12.407Z,98445.52
2019-04-07T23:29:40.684Z,98448.13
2019-04-07T23:32:09.538Z,98438.20
2019-04-07T23:34:37.737Z,98436.46
2019-04-07T23:37:06.088Z,98439.03
2019-04-07T23:39:34.290Z,98447.23
2019-04-07T23:42:02.811Z,98448.55
2019-04-07T23:44:31.780Z,98451.11
2019-04-07T23:47:00.012Z,98448.48
2019-04-07T23:49:28.254Z,98450.62
2019-04-07T23:51:56.494Z,98451.47
2019-04-07T23:54:24.958Z,98451.05
2019-04-07T23:56:54.139Z,98445.41
2019-04-07T23:59:22.825Z,98448.41
